createdAt,value
2018-07-22T00:02:46.881Z,13.30
2018-07-22T00:07:21.084Z,13.13
2018-07-22T00:11:56.279Z,13.58
2018-07-22T00:16:31.620Z,13.68
2018-07-22T00:21:06.003Z,12.63
2018-07-22T00:25:40.995Z,12.23
2018-07-22T00:30:15.384Z,12.50
2018-07-22T00:34:51.063Z,14.13
2018-07-22T00:39:25.363Z,14.58
2018-07-22T00:44:00.023Z,13.80
2018-07-22T00:48:34.779Z,14.45
2018-07-22T00:53:10.054Z,15.53
2018-07-22T00:57:45.004Z,22.75
2018-07-22T01:02:19.908Z,39.45
2018-07-22T01:06:54.656Z,13.30
2018-07-22T01:11:28.960Z,14.45
2018-07-22T01:16:03.836Z,15.20
2018-07-22T01:20:39.387Z,16.30
2018-07-22T01:25:14.372Z,17.82
2018-07-22T01:29:49.087Z,14.87
2018-07-22T01:34:24.376Z,15.43
2018-07-22T01:38:58.653Z,26.10
2018-07-22T01:43:33.017Z,28.25
2018-07-22T01:48:07.384Z,20.17
2018-07-22T01:52:41.664Z,15.68
2018-07-22T01:57:17.111Z,16.52
2018-07-22T02:01:52.911Z,15.45
2018-07-22T02:06:27.543Z,14.80
2018-07-22T02:11:03.070Z,16.73
2018-07-22T02:15:38.395Z,15.75
2018-07-22T02:20:13.440Z,14.78
2018-07-22T02:24:48.400Z,15.28
2018-07-22T02:29:25.118Z,15.00
2018-07-22T02:33:59.440Z,14.40
2018-07-22T02:38:33.788Z,13.78
2018-07-22T02:43:09.424Z,14.20
2018-07-22T02:47:43.608Z,14.20
2018-07-22T02:52:17.900Z,15.25
2018-07-22T02:56:53.286Z,14.47
2018-07-22T03:01:28.012Z,14.73
2018-07-22T03:06:02.260Z,15.05
2018-07-22T03:10:36.420Z,15.05
2018-07-22T03:15:11.092Z,16.82
2018-07-22T03:19:46.009Z,19.82
2018-07-22T03:24:20.279Z,18.65
2018-07-22T03:28:55.451Z,17.65
2018-07-22T03:33:31.328Z,17.23
2018-07-22T03:38:05.266Z,19.70
2018-07-22T03:42:40.843Z,17.70
2018-07-22T03:47:15.553Z,17.65
2018-07-22T03:51:49.980Z,18.73
2018-07-22T03:56:25.262Z,17.82
2018-07-22T04:00:59.960Z,17.70
2018-07-22T04:05:34.521Z,18.73
2018-07-22T04:10:08.672Z,17.85
2018-07-22T04:14:43.631Z,16.97
2018-07-22T04:19:17.983Z,17.23
2018-07-22T04:23:53.603Z,18.67
2018-07-22T04:28:28.008Z,18.07
2018-07-22T04:33:01.875Z,17.75
2018-07-22T04:37:36.568Z,17.77
2018-07-22T04:42:10.896Z,17.80
2018-07-22T04:46:45.379Z,20.35
2018-07-22T04:51:20.160Z,17.15
2018-07-22T04:55:54.388Z,18.90
2018-07-22T05:00:28.829Z,17.00
2018-07-22T05:05:04.028Z,18.60
2018-07-22T05:09:38.576Z,16.65
2018-07-22T05:14:12.836Z,16.77
2018-07-22T05:18:47.945Z,16.50
2018-07-22T05:23:23.043Z,17.00
2018-07-22T05:27:57.828Z,15.55
2018-07-22T05:32:32.128Z,16.85
2018-07-22T05:37:07.765Z,15.55
2018-07-22T05:41:42.506Z,15.25
2018-07-22T05:46:17.204Z,15.00
2018-07-22T05:50:52.128Z,15.40
2018-07-22T05:55:27.080Z,17.23
2018-07-22T06:00:02.462Z,15.23
2018-07-22T06:04:36.371Z,16.75
2018-07-22T06:09:11.423Z,15.03
2018-07-22T06:13:46.396Z,13.70
2018-07-22T06:18:21.291Z,13.32
2018-07-22T06:22:55.497Z,14.28
2018-07-22T06:27:29.924Z,13.53
2018-07-22T06:32:04.307Z,13.80
2018-07-22T06:36:38.851Z,15.90
2018-07-22T06:41:14.529Z,13.28
2018-07-22T06:45:48.748Z,13.08
2018-07-22T06:50:23.543Z,17.23
2018-07-22T06:54:58.212Z,11.93
2018-07-22T06:59:33.424Z,11.68
2018-07-22T07:04:07.743Z,12.20
2018-07-22T07:08:42.719Z,12.50
2018-07-22T07:13:16.938Z,12.78
2018-07-22T07:17:51.263Z,13.65
2018-07-22T07:22:25.843Z,11.57
2018-07-22T07:27:00.816Z,11.05
2018-07-22T07:31:35.164Z,13.65
2018-07-22T07:36:09.452Z,10.82
2018-07-22T07:40:44.912Z,14.35
2018-07-22T07:45:19.391Z,13.70
2018-07-22T07:49:53.740Z,11.22
2018-07-22T07:54:28.383Z,10.68
2018-07-22T07:59:02.812Z,11.00
2018-07-22T08:03:37.348Z,11.48
2018-07-22T08:08:12.885Z,13.10
2018-07-22T08:12:47.338Z,10.78
2018-07-22T08:17:21.150Z,12.10
2018-07-22T08:21:55.686Z,10.32
2018-07-22T08:26:29.883Z,11.65
2018-07-22T08:31:04.784Z,11.80
2018-07-22T08:35:39.096Z,10.32
2018-07-22T08:40:13.887Z,10.38
2018-07-22T08:44:48.788Z,10.55
2018-07-22T08:49:23.046Z,11.80
2018-07-22T08:53:58.396Z,11.43
2018-07-22T08:58:33.088Z,11.93
2018-07-22T09:03:07.568Z,12.23
2018-07-22T09:07:42.102Z,11.68
2018-07-22T09:12:17.067Z,16.17
2018-07-22T09:16:51.268Z,13.80
2018-07-22T09:21:25.435Z,15.63
2018-07-22T09:25:59.719Z,15.25
2018-07-22T09:30:34.120Z,18.17
2018-07-22T09:35:09.247Z,14.33
2018-07-22T09:39:44.279Z,13.72
2018-07-22T09:44:18.983Z,13.38
2018-07-22T09:48:53.144Z,14.90
2018-07-22T09:53:27.099Z,16.85
2018-07-22T09:58:01.508Z,11.57
2018-07-22T10:02:36.426Z,14.18
2018-07-22T10:07:11.439Z,13.10
2018-07-22T10:11:46.620Z,9.98
2018-07-22T10:16:21.159Z,12.80
2018-07-22T10:20:55.815Z,10.58
2018-07-22T10:25:31.663Z,10.08
2018-07-22T10:30:06.431Z,9.33
2018-07-22T10:34:41.020Z,11.00
2018-07-22T10:39:16.703Z,10.65
2018-07-22T10:43:51.852Z,9.65
2018-07-22T10:48:27.633Z,10.30
2018-07-22T10:53:02.235Z,9.10
2018-07-22T10:57:36.673Z,10.00
2018-07-22T11:02:11.272Z,11.35
2018-07-22T11:06:46.136Z,10.38
2018-07-22T11:11:22.495Z,9.08
2018-07-22T11:15:59.768Z,10.48
2018-07-22T11:20:35.961Z,8.78
2018-07-22T11:25:10.119Z,10.75
2018-07-22T11:29:44.123Z,10.43
2018-07-22T11:34:19.359Z,8.90
2018-07-22T11:38:53.595Z,10.18
2018-07-22T11:43:27.772Z,11.25
2018-07-22T11:48:03.457Z,11.97
2018-07-22T11:52:53.075Z,9.53
2018-07-22T11:57:30.400Z,9.78
2018-07-22T12:02:05.267Z,9.90
2018-07-22T12:06:40.307Z,9.05
2018-07-22T12:11:15.503Z,8.65
2018-07-22T12:15:51.411Z,9.35
2018-07-22T12:20:25.932Z,7.20
2018-07-22T12:25:00.880Z,8.95
2018-07-22T12:29:35.652Z,6.90
2018-07-22T12:34:09.615Z,6.28
2018-07-22T12:38:43.879Z,7.17
2018-07-22T12:43:18.209Z,6.95
2018-07-22T12:47:52.485Z,6.62
2018-07-22T12:52:26.786Z,8.88
2018-07-22T12:57:01.932Z,8.65
2018-07-22T13:01:36.719Z,6.72
2018-07-22T13:06:10.898Z,7.60
2018-07-22T13:10:46.877Z,7.28
2018-07-22T13:15:21.306Z,8.58
2018-07-22T13:19:56.785Z,6.37
2018-07-22T13:24:32.361Z,9.60
2018-07-22T13:29:07.365Z,6.33
2018-07-22T13:33:41.684Z,6.65
2018-07-22T13:38:16.098Z,6.58
2018-07-22T13:42:50.270Z,7.60
2018-07-22T13:47:24.421Z,6.58
2018-07-22T13:51:59.933Z,6.45
2018-07-22T13:56:34.124Z,6.65
2018-07-22T14:01:09.112Z,8.00
2018-07-22T14:05:43.352Z,7.20
2018-07-22T14:10:17.599Z,6.95
2018-07-22T14:14:51.761Z,7.85
2018-07-22T14:19:31.010Z,8.88
2018-07-22T14:24:05.844Z,8.35
2018-07-22T14:28:40.480Z,6.40
2018-07-22T14:33:14.800Z,6.30
2018-07-22T14:37:49.992Z,7.70
2018-07-22T14:42:26.182Z,10.50
2018-07-22T14:47:00.428Z,11.80
2018-07-22T14:51:34.600Z,6.12
2018-07-22T14:56:08.879Z,6.75
2018-07-22T15:00:43.069Z,9.68
2018-07-22T15:05:18.259Z,6.78
2018-07-22T15:09:52.891Z,7.17
2018-07-22T15:14:27.634Z,6.65
2018-07-22T15:19:01.998Z,7.87
2018-07-22T15:23:36.167Z,7.08
2018-07-22T15:28:11.124Z,7.95
2018-07-22T15:32:47.015Z,7.47
2018-07-22T15:37:21.310Z,6.55
2018-07-22T15:41:57.180Z,7.80
2018-07-22T15:46:31.817Z,6.55
2018-07-22T15:51:06.340Z,6.20
2018-07-22T15:55:41.610Z,6.45
2018-07-22T16:00:16.137Z,7.67
2018-07-22T16:04:51.177Z,6.33
2018-07-22T16:09:25.421Z,6.37
2018-07-22T16:13:59.235Z,6.78
2018-07-22T16:18:33.382Z,5.30
2018-07-22T16:23:14.184Z,6.45
2018-07-22T16:27:48.789Z,6.12
2018-07-22T16:32:23.715Z,6.15
2018-07-22T16:36:58.057Z,6.05
2018-07-22T16:41:32.460Z,6.65
2018-07-22T16:46:07.211Z,5.62
2018-07-22T16:50:42.764Z,5.05
2018-07-22T16:55:17.792Z,5.35
2018-07-22T16:59:51.980Z,6.28
2018-07-22T17:04:26.832Z,6.53
2018-07-22T17:09:01.279Z,5.42
2018-07-22T17:13:36.207Z,5.42
2018-07-22T17:18:10.535Z,5.42
2018-07-22T17:22:44.983Z,8.03
2018-07-22T17:27:19.369Z,5.35
2018-07-22T17:31:55.179Z,5.75
2018-07-22T17:36:29.386Z,7.95
2018-07-22T17:41:03.640Z,6.97
2018-07-22T17:45:38.176Z,5.22
2018-07-22T17:50:14.025Z,6.78
2018-07-22T17:54:48.608Z,6.00
2018-07-22T17:59:22.713Z,6.33
2018-07-22T18:03:58.197Z,7.00
2018-07-22T18:08:32.417Z,6.60
2018-07-22T18:13:06.212Z,6.25
2018-07-22T18:17:40.279Z,5.42
2018-07-22T18:22:15.056Z,5.40
2018-07-22T18:26:49.264Z,5.50
2018-07-22T18:31:23.628Z,5.20
2018-07-22T18:35:58.012Z,5.47
2018-07-22T18:40:32.923Z,5.67
2018-07-22T18:45:08.296Z,5.65
2018-07-22T18:49:43.481Z,6.80
2018-07-22T18:54:18.576Z,5.50
2018-07-22T18:58:53.223Z,5.97
2018-07-22T19:03:29.008Z,5.33
2018-07-22T19:08:03.513Z,6.50
2018-07-22T19:12:38.707Z,8.50
2018-07-22T19:17:12.958Z,6.87
2018-07-22T19:21:48.352Z,7.65
2018-07-22T19:26:22.623Z,6.87
2018-07-22T19:30:57.312Z,7.53
2018-07-22T19:35:31.760Z,7.47
2018-07-22T19:40:06.092Z,7.65
2018-07-22T19:44:40.991Z,6.62
2018-07-22T19:49:15.245Z,7.17
2018-07-22T19:53:49.661Z,7.08
2018-07-22T19:58:23.550Z,7.95
2018-07-22T20:02:58.970Z,7.80
2018-07-22T20:07:33.427Z,7.97
2018-07-22T20:12:08.256Z,7.40
2018-07-22T20:16:42.814Z,8.48
2018-07-22T20:21:17.825Z,9.68
2018-07-22T20:25:52.146Z,11.05
2018-07-22T20:30:27.303Z,7.47
2018-07-22T20:35:03.310Z,7.53
2018-07-22T20:39:39.124Z,8.63
2018-07-22T20:44:13.551Z,8.08
2018-07-22T20:48:48.484Z,8.20
2018-07-22T20:53:23.867Z,8.25
2018-07-22T20:57:58.027Z,8.45
2018-07-22T21:02:33.348Z,8.15
2018-07-22T21:07:08.484Z,8.98
2018-07-22T21:11:53.872Z,9.40
2018-07-22T21:16:28.167Z,9.70
2018-07-22T21:21:03.105Z,9.70
2018-07-22T21:25:37.521Z,9.18
2018-07-22T21:30:12.616Z,10.10
2018-07-22T21:34:46.887Z,10.45
2018-07-22T21:39:21.875Z,9.45
2018-07-22T21:43:56.079Z,10.23
2018-07-22T21:48:30.681Z,10.60
2018-07-22T21:53:04.980Z,10.35
2018-07-22T21:57:40.484Z,10.63
2018-07-22T22:02:15.499Z,11.63
2018-07-22T22:06:50.064Z,10.93
2018-07-22T22:11:25.907Z,11.48
2018-07-22T22:16:00.303Z,11.90
2018-07-22T22:20:34.524Z,11.25
2018-07-22T22:25:10.032Z,10.82
2018-07-22T22:29:44.590Z,11.83
2018-07-22T22:34:19.051Z,12.07
2018-07-22T22:38:54.394Z,12.00
2018-07-22T22:43:29.459Z,14.45
2018-07-22T22:48:04.392Z,12.10
2018-07-22T22:52:38.719Z,11.93
2018-07-22T22:57:13.664Z,12.75
2018-07-22T23:01:48.324Z,12.45
2018-07-22T23:06:22.919Z,13.28
2018-07-22T23:10:58.508Z,13.35
2018-07-22T23:15:34.147Z,13.95
2018-07-22T23:20:09.307Z,13.35
2018-07-22T23:24:43.859Z,14.23
2018-07-22T23:29:19.116Z,14.13
2018-07-22T23:33:53.599Z,14.18
2018-07-22T23:38:27.983Z,13.53
2018-07-22T23:43:02.887Z,13.98
2018-07-22T23:47:37.984Z,13.30
2018-07-22T23:52:12.420Z,15.15
2018-07-22T23:56:47.047Z,14.00
